• Join FlightAware (Why Join?)
  • Login
  • US Flag 
12:44PM EDT


 

Airport Tracker/Info


-or-


 

Live Flight TrackerFlight Track Log ✈ CSC8515 ✈ 19-Feb-2014 ✈ ZUZH / PZI - ZUCK / CKG

Flight Track Log - Related Links

Times and Time Zones

All times are in EST time to prevent confusion due to time zone crossing. See the CSC8515 flight status page for this flight to view local times or setup timezone preferences in your user account.

Time Position Orientation Groundspeed Altitude Reporting Facility
EST Latitude Longitude Course Direction KTS MPH feet Rate Location/Type
04:22AM 27.4396 103.1149 52° Northeast  Level Estimated
04:23AM 27.6180 103.3806 53° Northeast  Level Estimated
04:24AM 27.6822 103.4765 53° Northeast  Level Estimated
04:25AM 27.7462 103.5725 53° Northeast  Level Estimated
04:26AM 27.8102 103.6686 53° Northeast  Level Estimated
04:27AM 27.8741 103.7648 53° Northeast  Level Estimated
04:28AM 27.9380 103.8611 53° Northeast  Level Estimated
04:29AM 28.0017 103.9576 53° Northeast  Level Estimated
04:30AM 28.0654 104.0541 53° Northeast  Level Estimated
04:31AM 28.1291 104.1508 53° Northeast  Level Estimated
04:32AM 28.1927 104.2476 53° Northeast  Level Estimated
04:33AM 28.2562 104.3445 53° Northeast  Level Estimated
04:34AM 28.3196 104.4415 53° Northeast  Level Estimated
04:35AM 28.3830 104.5386 53° Northeast  Level Estimated
04:36AM 28.4463 104.6359 53° Northeast  Level Estimated
04:37AM 28.5095 104.7332 54° Northeast  Level Estimated
04:38AM 28.5727 104.8307 54° Northeast  Level Estimated
04:39AM 28.6358 104.9283 54° Northeast  Level Estimated
04:40AM 28.6988 105.0260 54° Northeast  Level Estimated
04:41AM 28.7617 105.1238 54° Northeast  Level Estimated
04:42AM 28.8246 105.2218 54° Northeast  Level Estimated
04:43AM 28.8874 105.3199 54° Northeast  Level Estimated
04:44AM 28.9502 105.4181 54° Northeast  Level Estimated
04:45AM 29.0128 105.5163 54° Northeast  Level Estimated
04:46AM 29.0754 105.6148 54° Northeast  Level Estimated
04:47AM 29.1380 105.7133 54° Northeast  Level Estimated
04:48AM 29.2004 105.8120 54° Northeast  Level Estimated
04:49AM 29.2628 105.9108 54° Northeast  Level Estimated
04:50AM 29.3251 106.0097 54° Northeast  Level Estimated
04:51AM 29.3874 106.1087 54° Northeast  Level Estimated
04:52AM 29.4495 106.2078 54° Northeast  Level Estimated
04:53AM 29.5116 106.3071 54° Northeast  Level Estimated
04:54AM 29.5736 106.4065 54° Northeast  Level Estimated
04:55AM 29.6356 106.5060 54° Northeast  Level Estimated
04:56AM 29.6974 106.6056 54° Northeast  Level Estimated
04:57AM 29.7194 106.6410 54° Northeast  Level Estimated
04:58AM 29.7194 106.6410 60° Northeast  Level Estimated
04:59AM 29.7194 106.6410 60° Northeast  Level Estimated
05:00AM 29.7194 106.6410 60° Northeast  Level Estimated
05:01AM 29.7194 106.6410 60° Northeast  Level Estimated
05:02AM 29.7194 106.6410 60° Northeast  Level Estimated
05:03AM 29.7194 106.6410 60° Northeast  Level Estimated
05:04AM 29.7194 106.6410 60° Northeast  Level Estimated
05:05AM 29.7194 106.6410 60° Northeast  Level Estimated
05:06AM 29.7194 106.6410 60° Northeast  Level Estimated
05:07AM 29.7194 106.6410 60° Northeast  Level Estimated
05:08AM 29.7194 106.6410 60° Northeast  Level Estimated
05:09AM 29.7194 106.6410 60° Northeast  Level Estimated
05:10AM 29.7194 106.6410 60° Northeast  Level Estimated
05:11AM 29.7194 106.6410 60° Northeast  Level Estimated
05:12AM 29.7194 106.6410 60° Northeast  Level Estimated
05:13AM 29.7194 106.6410 60° Northeast  Level Estimated
05:14AM 29.7194 106.6410 60° Northeast  Level Estimated
05:15AM 29.7194 106.6410 60° Northeast  Level Estimated
05:16AM 29.7194 106.6410 60° Northeast  Level Estimated
05:17AM 29.7194 106.6410 60° Northeast  Level Estimated
05:18AM 29.7194 106.6410 60° Northeast  Level Estimated
05:19AM 29.7194 106.6410 60° Northeast  Level Estimated
05:20AM 29.7194 106.6410 60° Northeast  Level Estimated
05:21AM 29.7194 106.6410 60° Northeast  Level Estimated
05:22AM 29.7194 106.6410 60° Northeast  Level Estimated
05:23AM 29.7194 106.6410 60° Northeast  Level Estimated